createdAt,value
2023-05-19T08:25:26.665Z,72.35
2023-05-19T08:27:53.819Z,71.62
2023-05-19T08:30:20.854Z,69.27
2023-05-19T08:32:48.953Z,66.96
2023-05-19T08:35:16.144Z,67.56
2023-05-19T08:37:43.151Z,69.13
2023-05-19T08:40:17.185Z,67.71
2023-05-19T08:42:45.752Z,67.07
2023-05-19T08:45:13.546Z,68.62
2023-05-19T08:47:42.584Z,68.90
2023-05-19T08:50:36.081Z,67.20
2023-05-19T08:53:33.107Z,69.36
2023-05-19T08:56:22.956Z,67.16
2023-05-19T08:58:51.841Z,65.87
2023-05-19T09:01:20.160Z,64.79
2023-05-19T09:03:50.138Z,62.92
2023-05-19T09:06:17.782Z,63.69
2023-05-19T09:08:45.089Z,64.82
2023-05-19T09:11:12.609Z,63.50
2023-05-19T09:13:39.734Z,64.68
2023-05-19T09:16:07.211Z,63.49
2023-05-19T09:18:34.432Z,61.05
2023-05-19T09:21:03.382Z,62.02
2023-05-19T09:23:34.339Z,61.65
2023-05-19T09:26:08.042Z,59.95
2023-05-19T09:28:36.749Z,60.38
2023-05-19T09:31:11.438Z,59.22
2023-05-19T09:33:42.890Z,59.95
2023-05-19T09:36:11.868Z,57.79
2023-05-19T09:38:39.804Z,57.26
2023-05-19T09:41:08.446Z,56.99
2023-05-19T09:43:35.820Z,56.35
2023-05-19T09:46:14.648Z,56.30
2023-05-19T09:48:42.698Z,54.47
2023-05-19T09:51:12.567Z,53.83
2023-05-19T09:53:39.606Z,54.00
2023-05-19T09:56:09.007Z,53.96
2023-05-19T09:58:36.934Z,52.36
2023-05-19T10:01:05.024Z,52.67
2023-05-19T10:03:35.447Z,52.79
2023-05-19T10:06:04.817Z,48.53
2023-05-19T10:08:33.786Z,49.31
2023-05-19T10:11:01.447Z,49.93
2023-05-19T10:13:30.177Z,50.14
2023-05-19T10:16:00.058Z,49.95
2023-05-19T10:18:30.995Z,49.96
2023-05-19T10:20:59.228Z,48.33
2023-05-19T10:23:26.883Z,49.79
2023-05-19T10:25:56.868Z,46.67
2023-05-19T10:28:28.410Z,46.46
2023-05-19T10:31:00.834Z,46.32
2023-05-19T10:33:54.214Z,46.54
2023-05-19T10:36:31.373Z,46.51
2023-05-19T10:39:08.401Z,44.00
2023-05-19T10:41:45.145Z,44.39
2023-05-19T10:44:21.514Z,43.76
2023-05-19T10:46:49.223Z,42.68
2023-05-19T10:49:25.401Z,43.94
2023-05-19T10:51:55.160Z,43.64
2023-05-19T10:54:43.721Z,44.69
2023-05-19T10:57:14.474Z,41.87
2023-05-19T10:59:42.334Z,41.74
2023-05-19T11:02:09.499Z,41.33
2023-05-19T11:05:07.899Z,41.05
2023-05-19T11:07:35.180Z,42.32
2023-05-19T11:10:07.603Z,40.96
2023-05-19T11:12:46.083Z,39.90
2023-05-19T11:15:15.339Z,39.01
2023-05-19T11:17:45.549Z,39.47
2023-05-19T11:20:26.689Z,39.03
2023-05-19T11:23:26.508Z,38.38
2023-05-19T11:25:56.499Z,37.63
2023-05-19T11:28:29.572Z,38.33
2023-05-19T11:30:59.358Z,37.91
2023-05-19T11:33:30.366Z,39.10
2023-05-19T11:35:58.784Z,37.33
2023-05-19T11:38:26.810Z,38.07
2023-05-19T11:40:54.783Z,39.40
2023-05-19T11:43:25.945Z,40.48
2023-05-19T11:45:54.802Z,40.70
2023-05-19T11:48:22.682Z,41.04
2023-05-19T11:50:50.485Z,41.08
2023-05-19T11:53:20.034Z,43.29
2023-05-19T11:55:48.245Z,42.57
2023-05-19T11:58:17.085Z,42.60
2023-05-19T12:00:46.472Z,44.84
2023-05-19T12:03:13.828Z,47.51
2023-05-19T12:05:46.866Z,47.15
2023-05-19T12:08:14.360Z,49.56
2023-05-19T12:10:41.953Z,51.01
2023-05-19T12:13:11.999Z,52.53
2023-05-19T12:15:39.519Z,53.83
2023-05-19T12:18:07.095Z,57.22
2023-05-19T12:20:36.315Z,61.61
2023-05-19T12:23:04.288Z,66.02
2023-05-19T12:25:32.663Z,69.33
2023-05-19T12:28:03.564Z,73.55
2023-05-19T12:30:32.191Z,76.89
2023-05-19T12:33:00.027Z,76.38
2023-05-19T12:35:33.589Z,79.06
2023-05-19T12:38:07.417Z,78.63
2023-05-19T12:40:36.303Z,78.20
2023-05-19T12:43:04.417Z,77.83
2023-05-19T12:45:36.333Z,77.76
2023-05-19T12:48:05.690Z,75.03
2023-05-19T12:50:34.587Z,72.09
2023-05-19T12:53:02.324Z,69.17
2023-05-19T12:55:30.146Z,67.03
2023-05-19T12:57:58.592Z,65.48
2023-05-19T13:00:28.825Z,61.80
2023-05-19T13:03:14.885Z,60.78
2023-05-19T13:05:44.575Z,59.17
2023-05-19T13:08:13.329Z,58.27
2023-05-19T13:10:42.491Z,56.68
2023-05-19T13:13:09.350Z,56.78
2023-05-19T13:15:40.536Z,54.71
2023-05-19T13:18:10.435Z,50.86
2023-05-19T13:20:38.840Z,53.93
2023-05-19T13:23:06.203Z,53.10
2023-05-19T13:25:34.731Z,52.29
2023-05-19T13:28:05.595Z,52.41
2023-05-19T13:30:34.354Z,52.07
2023-05-19T13:33:02.022Z,53.04
2023-05-19T13:35:29.371Z,51.30
2023-05-19T13:37:56.510Z,50.71
2023-05-19T13:40:24.443Z,50.52
2023-05-19T13:42:51.524Z,50.46
2023-05-19T13:45:18.696Z,50.58
2023-05-19T13:47:45.735Z,51.67
2023-05-19T13:50:12.930Z,51.51
2023-05-19T13:52:39.997Z,51.38
2023-05-19T13:55:08.133Z,51.74
2023-05-19T13:57:35.932Z,49.41
2023-05-19T14:00:05.067Z,50.60
2023-05-19T14:02:41.460Z,51.80
2023-05-19T14:05:09.082Z,48.93
2023-05-19T14:07:36.236Z,50.71
2023-05-19T14:10:05.738Z,51.52
2023-05-19T14:12:41.457Z,49.32
2023-05-19T14:15:11.591Z,50.00
2023-05-19T14:17:38.998Z,47.67
2023-05-19T14:20:06.576Z,46.99
2023-05-19T14:22:33.602Z,46.13
2023-05-19T14:25:00.932Z,45.95
2023-05-19T14:27:27.922Z,43.74
2023-05-19T14:29:54.982Z,44.40
2023-05-19T14:32:22.752Z,43.95
2023-05-19T14:34:53.041Z,46.74
2023-05-19T14:37:20.649Z,44.67
2023-05-19T14:39:47.664Z,45.22
2023-05-19T14:42:14.996Z,45.42
2023-05-19T14:44:42.033Z,43.35
2023-05-19T14:47:11.501Z,43.51
2023-05-19T14:49:38.720Z,44.30
2023-05-19T14:52:05.906Z,42.80
2023-05-19T14:54:32.846Z,44.26
2023-05-19T14:57:00.409Z,42.92
2023-05-19T14:59:27.713Z,43.25
2023-05-19T15:01:54.812Z,41.66
2023-05-19T15:04:22.085Z,41.78
2023-05-19T15:06:58.165Z,41.51
2023-05-19T15:09:36.436Z,41.16
2023-05-19T15:12:03.714Z,40.12
2023-05-19T15:14:31.364Z,39.62
2023-05-19T15:16:59.106Z,38.45
2023-05-19T15:19:26.739Z,37.67
2023-05-19T15:21:54.415Z,37.50
2023-05-19T15:24:21.544Z,37.46
2023-05-19T15:26:48.673Z,37.54
2023-05-19T15:29:15.795Z,36.75
2023-05-19T15:31:42.974Z,37.36
2023-05-19T15:34:10.181Z,37.84
2023-05-19T15:36:37.276Z,37.87
2023-05-19T15:39:04.306Z,38.16
2023-05-19T15:41:31.374Z,37.72
2023-05-19T15:44:00.669Z,38.37
2023-05-19T15:46:28.473Z,38.77
2023-05-19T15:48:56.197Z,38.13
2023-05-19T15:51:24.229Z,38.75
2023-05-19T15:53:51.769Z,39.25
2023-05-19T15:56:19.682Z,40.17
2023-05-19T15:58:46.851Z,40.83
2023-05-19T16:01:16.266Z,41.45
2023-05-19T16:03:44.382Z,42.47
2023-05-19T16:06:11.621Z,42.43
2023-05-19T16:08:38.717Z,42.91
2023-05-19T16:11:05.930Z,43.75
2023-05-19T16:13:34.157Z,44.71
2023-05-19T16:16:01.472Z,44.98
2023-05-19T16:18:31.281Z,45.16
2023-05-19T16:20:58.472Z,45.56
2023-05-19T16:23:25.608Z,46.58
2023-05-19T16:25:55.166Z,46.64
2023-05-19T16:28:24.494Z,47.23
2023-05-19T16:30:51.920Z,46.34
2023-05-19T16:33:19.222Z,45.56
2023-05-19T16:35:46.296Z,44.55
2023-05-19T16:38:13.620Z,44.55
2023-05-19T16:40:40.753Z,43.51
2023-05-19T16:43:07.789Z,43.54
2023-05-19T16:45:34.911Z,44.20
2023-05-19T16:48:02.227Z,45.83
2023-05-19T16:50:29.793Z,45.61
2023-05-19T16:52:56.903Z,45.56
2023-05-19T16:55:25.667Z,44.55
2023-05-19T16:57:52.745Z,45.13
2023-05-19T17:02:30.518Z,45.11
